Time;durP1;ratioP1;P1;durP2;ratioP2;P2;SDS_P1;SDS_P2;PMS_P1;PMS_P2;Temp;Humidity;BMP_temperature;BMP_pressure;BME280_temperature;BME280_humidity;BME280_pressure;Samples;Min_cycle;Max_cycle;Signal;HPM_P1;HPM_P2
2022/03/18 00:00:18;;;;;;;7.38;4.85;;;8.60;62.90;;;;;;5106754;28;20243;-74
2022/03/18 00:02:45;;;;;;;6.00;4.95;;;8.60;63.10;;;;;;5104836;28;20205;-74
2022/03/18 00:05:13;;;;;;;9.60;5.80;;;8.60;63.10;;;;;;5101938;28;20205;-75
2022/03/18 00:07:41;;;;;;;7.47;4.90;;;8.60;62.90;;;;;;5096479;28;20208;-75
2022/03/18 00:10:09;;;;;;;12.57;5.13;;;8.50;62.80;;;;;;5097115;28;20316;-75
2022/03/18 00:12:37;;;;;;;4.95;4.38;;;8.50;62.50;;;;;;5103641;28;20233;-75
2022/03/18 00:15:07;;;;;;;8.20;4.93;;;8.50;62.40;;;;;;5107517;28;20689;-75
2022/03/18 00:17:34;;;;;;;7.97;5.22;;;8.40;62.30;;;;;;5106548;28;20687;-75
2022/03/18 00:20:01;;;;;;;8.38;4.65;;;8.40;62.80;;;;;;5105048;28;20304;-75
2022/03/18 00:22:29;;;;;;;10.48;5.10;;;8.30;62.70;;;;;;5103555;28;20200;-74
2022/03/18 00:24:56;;;;;;;8.40;5.28;;;8.30;62.70;;;;;;5102609;28;20239;-75
2022/03/18 00:27:23;;;;;;;7.10;5.10;;;8.30;62.70;;;;;;5106561;28;20212;-75
2022/03/18 00:29:50;;;;;;;7.32;4.80;;;8.30;62.70;;;;;;5112617;28;20229;-74
2022/03/18 00:32:17;;;;;;;13.38;5.22;;;8.30;62.70;;;;;;5116682;28;20268;-74
2022/03/18 00:34:44;;;;;;;12.88;4.85;;;8.30;62.50;;;;;;5117059;28;20201;-73
2022/03/18 00:37:10;;;;;;;8.50;4.82;;;8.30;62.40;;;;;;5112812;28;20235;-74
2022/03/18 00:39:39;;;;;;;9.82;4.97;;;8.20;62.20;;;;;;5106688;28;20217;-75
2022/03/18 00:42:07;;;;;;;9.30;4.47;;;8.20;62.60;;;;;;5107948;28;20205;-74
2022/03/18 00:44:33;;;;;;;8.85;4.50;;;8.20;62.30;;;;;;5107209;28;20240;-74
2022/03/18 00:47:01;;;;;;;6.38;4.38;;;8.20;62.10;;;;;;5105481;28;20205;-75
2022/03/18 00:52:14;;;;;;;6.47;4.55;;;8.10;62.40;;;;;;5106334;28;20279;-75
2022/03/18 00:54:43;;;;;;;9.70;4.25;;;8.10;62.50;;;;;;5102303;28;20216;-75
2022/03/18 00:57:12;;;;;;;7.93;4.97;;;8.10;62.30;;;;;;5101966;28;20204;-75
2022/03/18 00:59:39;;;;;;;5.97;3.75;;;8.20;62.30;;;;;;5080598;28;20226;-76
2022/03/18 01:02:06;;;;;;;10.20;5.10;;;8.20;62.30;;;;;;5093905;28;20208;-76
2022/03/18 01:04:34;;;;;;;6.30;4.28;;;8.10;62.40;;;;;;5111559;28;20208;-75
2022/03/18 01:07:01;;;;;;;9.27;4.80;;;8.10;62.30;;;;;;5111081;28;20285;-75
2022/03/18 01:09:28;;;;;;;6.90;4.22;;;8.10;62.10;;;;;;5112365;28;20252;-76
2022/03/18 01:11:57;;;;;;;9.85;4.75;;;8.10;61.80;;;;;;5111311;28;20197;-75
2022/03/18 01:14:24;;;;;;;10.27;4.32;;;8.00;62.70;;;;;;5103961;28;20619;-73
2022/03/18 01:16:51;;;;;;;7.55;4.68;;;8.00;62.10;;;;;;5098848;28;20226;-76
2022/03/18 01:19:18;;;;;;;8.55;4.65;;;8.00;62.40;;;;;;5098202;28;20240;-76
2022/03/18 01:21:45;;;;;;;9.85;4.40;;;8.00;62.20;;;;;;5097791;28;20240;-74
2022/03/18 01:24:12;;;;;;;6.35;4.30;;;8.00;62.30;;;;;;5097427;28;20212;-74
2022/03/18 01:26:40;;;;;;;7.35;4.60;;;7.90;62.30;;;;;;5111298;28;20210;-76
2022/03/18 01:29:08;;;;;;;9.55;4.90;;;8.00;62.70;;;;;;5100701;28;20228;-75
2022/03/18 01:31:35;;;;;;;6.38;4.88;;;8.00;61.90;;;;;;5106473;28;20212;-76
2022/03/18 01:34:03;;;;;;;4.47;3.95;;;7.90;61.90;;;;;;5103373;28;20224;-76
2022/03/18 01:36:30;;;;;;;8.50;4.75;;;7.90;62.10;;;;;;5103249;28;20209;-76
2022/03/18 01:38:57;;;;;;;7.65;4.75;;;7.90;62.30;;;;;;5099615;28;20224;-75
2022/03/18 01:41:24;;;;;;;10.07;4.45;;;8.00;62.20;;;;;;5098473;28;20604;-76
2022/03/18 01:43:51;;;;;;;9.07;4.60;;;8.00;62.70;;;;;;5098267;28;20201;-73
2022/03/18 01:46:19;;;;;;;7.15;4.13;;;8.00;61.70;;;;;;5100230;28;20232;-75
2022/03/18 01:48:48;;;;;;;8.48;4.35;;;8.00;61.60;;;;;;5100530;28;20225;-75
2022/03/18 01:51:16;;;;;;;7.50;4.68;;;8.00;61.50;;;;;;5101280;28;20299;-76
2022/03/18 01:53:44;;;;;;;6.72;4.40;;;7.90;61.60;;;;;;5101399;28;20205;-75
2022/03/18 01:56:11;;;;;;;6.63;3.90;;;7.90;61.50;;;;;;5099323;28;20208;-76
2022/03/18 01:58:38;;;;;;;9.23;4.65;;;7.80;61.80;;;;;;5095358;28;20287;-78
2022/03/18 02:01:05;;;;;;;12.20;4.93;;;7.80;62.10;;;;;;5097232;28;20229;-76
2022/03/18 02:03:34;;;;;;;9.60;4.50;;;7.70;61.60;;;;;;5098031;28;20241;-74
2022/03/18 02:06:01;;;;;;;6.75;4.22;;;7.80;62.20;;;;;;5099832;28;20206;-76
2022/03/18 02:08:29;;;;;;;10.27;4.18;;;7.80;61.90;;;;;;5095989;28;20659;-76
2022/03/18 02:10:57;;;;;;;13.15;5.10;;;7.70;62.20;;;;;;5076854;28;20221;-77
2022/03/18 02:13:24;;;;;;;11.07;4.88;;;7.70;61.90;;;;;;5077152;28;20685;-77
2022/03/18 02:15:51;;;;;;;6.95;3.75;;;7.70;62.20;;;;;;5097087;28;20216;-74
2022/03/18 02:18:17;;;;;;;6.97;4.25;;;7.70;62.20;;;;;;5100188;28;20205;-75
2022/03/18 02:20:46;;;;;;;7.95;4.65;;;7.60;62.60;;;;;;5104970;28;20224;-75
2022/03/18 02:23:14;;;;;;;8.40;4.07;;;7.60;63.00;;;;;;5110846;28;20219;-75
2022/03/18 02:25:41;;;;;;;7.28;4.53;;;7.60;63.10;;;;;;5101467;28;20618;-77
2022/03/18 02:28:08;;;;;;;8.35;4.85;;;7.60;62.90;;;;;;5097047;28;20299;-76
2022/03/18 02:30:35;;;;;;;9.43;4.60;;;7.60;62.80;;;;;;5098412;28;20232;-76
2022/03/18 02:33:03;;;;;;;9.57;4.45;;;7.60;62.50;;;;;;5096985;28;20266;-74
2022/03/18 02:35:30;;;;;;;5.72;4.28;;;7.70;62.20;;;;;;5097521;28;20492;-77
2022/03/18 02:37:57;;;;;;;13.82;4.57;;;7.60;62.20;;;;;;5102171;28;20736;-75
2022/03/18 02:40:27;;;;;;;13.50;4.53;;;7.60;62.70;;;;;;5101746;28;20224;-75
2022/03/18 02:42:54;;;;;;;5.85;4.28;;;7.60;62.30;;;;;;5097032;28;20227;-75
2022/03/18 02:45:21;;;;;;;9.73;4.50;;;7.70;62.40;;;;;;5095703;28;20246;-77
2022/03/18 02:47:48;;;;;;;7.72;4.63;;;7.60;62.40;;;;;;5095867;28;20243;-76
2022/03/18 02:50:16;;;;;;;9.23;4.85;;;7.50;62.90;;;;;;5095278;27;20301;-76
2022/03/18 02:52:43;;;;;;;9.02;4.57;;;7.50;62.50;;;;;;5095403;28;20295;-76
2022/03/18 02:55:10;;;;;;;6.43;4.40;;;7.60;62.80;;;;;;5095695;28;20298;-76
2022/03/18 02:57:39;;;;;;;6.65;4.13;;;7.60;62.90;;;;;;5098741;28;20259;-75
2022/03/18 03:00:08;;;;;;;8.00;4.47;;;7.60;62.80;;;;;;5099076;28;20228;-76
2022/03/18 03:02:35;;;;;;;9.93;4.45;;;7.50;63.40;;;;;;5099619;28;20202;-77
2022/03/18 03:08:01;;;;;;;5.32;4.13;;;7.50;62.60;;;;;;5110709;28;20246;-75
2022/03/18 03:10:29;;;;;;;5.78;3.78;;;7.50;62.80;;;;;;5110678;28;20235;-75
2022/03/18 03:12:59;;;;;;;11.30;4.63;;;7.50;63.20;;;;;;5113550;28;20227;-75
2022/03/18 03:15:26;;;;;;;7.35;4.70;;;7.50;63.30;;;;;;5113013;28;20224;-77
2022/03/18 03:17:53;;;;;;;6.60;4.28;;;7.50;63.90;;;;;;5108937;28;20208;-73
2022/03/18 03:20:20;;;;;;;6.88;4.13;;;7.50;63.10;;;;;;5106706;28;20236;-76
2022/03/18 03:22:47;;;;;;;6.25;4.25;;;7.50;63.30;;;;;;5101012;28;20236;-76
2022/03/18 03:25:14;;;;;;;6.68;4.28;;;7.50;63.00;;;;;;5098590;28;20214;-76
2022/03/18 03:27:42;;;;;;;7.43;4.18;;;7.50;63.30;;;;;;5098734;28;20624;-76
2022/03/18 03:30:11;;;;;;;6.97;4.30;;;7.40;63.00;;;;;;5104393;28;20227;-75
2022/03/18 03:32:39;;;;;;;7.90;4.18;;;7.50;62.40;;;;;;5109421;28;20659;-75
2022/03/18 03:35:08;;;;;;;9.02;4.07;;;7.50;62.70;;;;;;5112275;28;20217;-73
2022/03/18 03:37:35;;;;;;;8.95;4.63;;;7.40;63.10;;;;;;5112092;28;20234;-75
2022/03/18 03:40:02;;;;;;;11.23;4.75;;;7.40;62.90;;;;;;5111622;28;20227;-77
2022/03/18 03:42:29;;;;;;;6.22;4.55;;;7.40;63.80;;;;;;5112508;28;20230;-75
2022/03/18 03:44:56;;;;;;;6.82;4.45;;;7.40;63.00;;;;;;5112275;28;20205;-76
2022/03/18 03:47:24;;;;;;;7.10;4.15;;;7.30;63.20;;;;;;5111090;28;20238;-75
2022/03/18 03:49:51;;;;;;;10.48;4.35;;;7.30;63.10;;;;;;5106468;28;20229;-75
2022/03/18 03:52:19;;;;;;;6.78;3.63;;;7.40;62.90;;;;;;5108988;28;20200;-74
2022/03/18 03:54:46;;;;;;;5.97;4.00;;;7.40;62.70;;;;;;5109434;28;20235;-75
2022/03/18 03:57:13;;;;;;;4.82;3.80;;;7.40;62.90;;;;;;5108697;28;20224;-77
2022/03/18 03:59:40;;;;;;;10.73;4.53;;;7.40;62.90;;;;;;5110761;28;20284;-74
2022/03/18 04:02:08;;;;;;;5.25;4.15;;;7.40;63.00;;;;;;5105434;28;20668;-76
2022/03/18 04:04:36;;;;;;;8.57;4.53;;;7.40;62.70;;;;;;5099716;28;20558;-75
2022/03/18 04:07:03;;;;;;;6.18;3.97;;;7.30;62.70;;;;;;5098281;28;20207;-75
2022/03/18 04:09:30;;;;;;;7.35;4.20;;;7.40;62.80;;;;;;5099994;28;20594;-75
2022/03/18 04:11:57;;;;;;;6.78;4.10;;;7.40;62.50;;;;;;5105918;28;20223;-74
2022/03/18 04:14:24;;;;;;;9.88;4.88;;;7.40;62.70;;;;;;5105536;28;20208;-75
2022/03/18 04:16:51;;;;;;;7.60;3.80;;;7.40;62.00;;;;;;5111983;28;20223;-75
2022/03/18 04:19:18;;;;;;;7.97;4.15;;;7.40;62.30;;;;;;5112593;28;20250;-75
2022/03/18 04:21:47;;;;;;;11.82;4.38;;;7.30;62.60;;;;;;5115283;28;20207;-76
2022/03/18 04:24:13;;;;;;;10.23;3.58;;;7.30;62.90;;;;;;5101841;28;20209;-73
2022/03/18 04:26:40;;;;;;;8.25;3.80;;;7.30;63.10;;;;;;5096336;28;20573;-75
2022/03/18 04:29:08;;;;;;;7.60;4.10;;;7.40;63.00;;;;;;5096757;28;20289;-76
2022/03/18 04:31:35;;;;;;;5.25;3.90;;;7.40;62.40;;;;;;5097599;28;20229;-75
2022/03/18 04:34:02;;;;;;;6.63;4.45;;;7.40;62.00;;;;;;5097336;28;20247;-76
2022/03/18 04:36:29;;;;;;;8.23;3.80;;;7.40;61.90;;;;;;5097391;27;20205;-77
2022/03/18 04:38:58;;;;;;;6.63;4.30;;;7.40;61.90;;;;;;5098203;28;20292;-74
2022/03/18 04:41:25;;;;;;;5.53;4.00;;;7.30;62.30;;;;;;5096504;28;20197;-74
2022/03/18 04:43:52;;;;;;;7.30;3.80;;;7.30;62.40;;;;;;5096632;28;20208;-75
2022/03/18 04:46:20;;;;;;;6.20;3.83;;;7.30;62.30;;;;;;5095787;27;20215;-74
2022/03/18 04:48:47;;;;;;;7.63;4.65;;;7.40;62.30;;;;;;5096746;28;20603;-76
2022/03/18 04:51:14;;;;;;;10.02;4.55;;;7.40;61.90;;;;;;5095907;28;20217;-74
2022/03/18 04:53:42;;;;;;;5.07;3.90;;;7.30;62.10;;;;;;5097081;28;20216;-76
2022/03/18 04:57:15;;;;;;;4.53;3.20;;;7.30;62.30;;;;;;5096705;28;20201;-77
2022/03/18 04:58:57;;;;;;;8.88;3.95;;;7.10;62.80;;;;;;5096031;28;20605;-74
2022/03/18 05:01:25;;;;;;;7.10;3.80;;;7.10;63.10;;;;;;5095422;28;20204;-75
2022/03/18 05:03:52;;;;;;;4.32;3.45;;;7.20;63.20;;;;;;5095152;28;20208;-76
2022/03/18 05:06:19;;;;;;;10.68;4.13;;;7.20;62.70;;;;;;5103559;28;20264;-75
2022/03/18 05:08:46;;;;;;;8.85;4.00;;;7.10;63.20;;;;;;5103621;28;20229;-75
2022/03/18 05:11:14;;;;;;;8.98;4.00;;;7.10;63.60;;;;;;5107508;28;20253;-74
2022/03/18 05:13:42;;;;;;;12.05;4.50;;;7.10;62.90;;;;;;5110205;28;20211;-75
2022/03/18 05:16:09;;;;;;;10.85;4.82;;;7.10;63.10;;;;;;5104421;28;20608;-77
2022/03/18 05:18:36;;;;;;;13.63;4.97;;;7.10;63.30;;;;;;5104468;28;20204;-75
2022/03/18 05:21:03;;;;;;;11.82;4.50;;;7.20;63.00;;;;;;5102492;28;20220;-75
2022/03/18 05:23:30;;;;;;;5.35;3.88;;;7.20;62.70;;;;;;5103127;28;20209;-74
2022/03/18 05:25:56;;;;;;;7.13;4.00;;;7.10;63.10;;;;;;5096436;28;20208;-75
2022/03/18 05:28:26;;;;;;;8.70;4.38;;;7.10;63.30;;;;;;5096597;28;20298;-76
2022/03/18 05:30:53;;;;;;;8.23;4.47;;;7.00;63.80;;;;;;5096357;28;20269;-76
2022/03/18 05:33:20;;;;;;;12.05;3.78;;;7.10;63.60;;;;;;5096982;28;20207;-76
2022/03/18 05:35:47;;;;;;;8.60;3.88;;;7.10;63.60;;;;;;5095927;28;20207;-76
2022/03/18 05:38:15;;;;;;;7.22;4.43;;;7.10;63.40;;;;;;5099213;28;20295;-74
2022/03/18 05:40:42;;;;;;;7.78;4.78;;;7.10;63.40;;;;;;5108060;28;20207;-74
2022/03/18 05:43:10;;;;;;;7.50;4.40;;;7.00;63.40;;;;;;5108437;28;20209;-75
2022/03/18 05:45:38;;;;;;;8.18;4.55;;;7.00;63.90;;;;;;5109034;28;20577;-75
2022/03/18 05:48:07;;;;;;;8.45;3.97;;;7.00;63.70;;;;;;5108004;28;20273;-74
2022/03/18 05:50:34;;;;;;;12.32;4.43;;;7.10;63.40;;;;;;5108787;28;20242;-75
2022/03/18 05:53:01;;;;;;;5.90;4.50;;;7.10;63.10;;;;;;5107033;28;20208;-75
2022/03/18 05:56:52;;;;;;;8.13;4.40;;;7.10;63.40;;;;;;5113658;28;20211;-75
2022/03/18 05:58:15;;;;;;;8.48;4.60;;;7.10;63.40;;;;;;5104456;28;20206;-74
2022/03/18 06:00:44;;;;;;;15.48;5.10;;;7.10;63.10;;;;;;5105074;28;20230;-74
2022/03/18 06:03:12;;;;;;;8.63;4.50;;;7.00;62.90;;;;;;5107324;28;20214;-75
2022/03/18 06:05:39;;;;;;;11.05;5.20;;;7.00;63.50;;;;;;5104845;28;20212;-74
2022/03/18 06:13:35;;;;;;;7.63;4.53;;;7.00;63.50;;;;;;5107531;28;20210;-75
2022/03/18 06:16:03;;;;;;;8.38;4.70;;;7.10;63.30;;;;;;5107621;28;20232;-75
2022/03/18 06:18:30;;;;;;;6.93;4.10;;;7.10;63.20;;;;;;5101855;28;20197;-74
2022/03/18 06:20:57;;;;;;;11.10;4.80;;;7.10;63.10;;;;;;5105891;28;20258;-75
2022/03/18 06:23:24;;;;;;;7.72;4.68;;;7.10;63.00;;;;;;5104259;28;20323;-75
2022/03/18 06:25:51;;;;;;;13.95;5.10;;;7.20;62.70;;;;;;5107395;28;20219;-75
2022/03/18 06:28:18;;;;;;;8.00;4.90;;;7.10;63.10;;;;;;5098512;28;20227;-76
2022/03/18 06:30:46;;;;;;;10.55;4.88;;;7.20;62.70;;;;;;5100285;28;20278;-77
2022/03/18 06:33:14;;;;;;;9.00;4.78;;;7.30;62.60;;;;;;5110662;28;20204;-73
2022/03/18 06:35:41;;;;;;;10.43;4.65;;;7.30;62.50;;;;;;5115474;28;20588;-75
2022/03/18 06:38:08;;;;;;;13.07;5.40;;;7.30;62.20;;;;;;5113587;28;20205;-73
2022/03/18 06:40:35;;;;;;;11.10;4.95;;;7.40;62.10;;;;;;5113148;28;20215;-75
2022/03/18 06:43:02;;;;;;;11.05;5.22;;;7.40;61.90;;;;;;5113144;28;20680;-76
2022/03/18 06:45:29;;;;;;;8.90;4.30;;;7.40;61.90;;;;;;5100903;28;20297;-74
2022/03/18 06:47:56;;;;;;;7.35;4.68;;;7.30;61.80;;;;;;5106437;28;20269;-74
2022/03/18 06:50:25;;;;;;;8.18;4.63;;;7.30;62.10;;;;;;5115716;22;20624;-76
2022/03/18 06:52:52;;;;;;;13.10;5.82;;;7.40;61.90;;;;;;5097931;28;20211;-75
2022/03/18 06:55:18;;;;;;;7.18;4.85;;;7.40;61.90;;;;;;5098913;28;20269;-76
2022/03/18 06:57:45;;;;;;;11.40;4.93;;;7.30;61.80;;;;;;5107002;28;20247;-76
2022/03/18 07:00:13;;;;;;;9.93;5.35;;;7.30;61.90;;;;;;5111771;28;20248;-77
2022/03/18 07:02:40;;;;;;;10.02;5.53;;;7.30;62.00;;;;;;5114971;28;20219;-76
2022/03/18 07:05:08;;;;;;;8.80;5.10;;;7.50;62.00;;;;;;5111555;28;20217;-76
2022/03/18 07:07:37;;;;;;;10.07;5.13;;;7.50;61.70;;;;;;5098779;28;20546;-76
2022/03/18 07:10:04;;;;;;;10.27;5.45;;;7.50;61.50;;;;;;5098561;28;20263;-77
2022/03/18 07:12:31;;;;;;;9.50;4.95;;;7.60;61.10;;;;;;5097085;28;20651;-77
2022/03/18 07:14:58;;;;;;;13.35;5.15;;;7.60;61.20;;;;;;5097288;28;20212;-78
2022/03/18 07:20:12;;;;;;;9.82;5.55;;;7.70;60.70;;;;;;5097604;28;20578;-78
2022/03/18 07:22:41;;;;;;;13.00;5.57;;;7.80;60.50;;;;;;5098937;28;20594;-77
2022/03/18 07:25:09;;;;;;;8.85;5.30;;;7.70;60.70;;;;;;5104054;28;20220;-77
2022/03/18 07:27:36;;;;;;;11.48;6.30;;;7.70;60.20;;;;;;5097629;28;20273;-77
2022/03/18 07:30:03;;;;;;;10.32;5.20;;;7.70;60.60;;;;;;5096600;28;20307;-78
2022/03/18 07:32:29;;;;;;;9.18;5.40;;;7.70;60.10;;;;;;5101690;28;20200;-78
2022/03/18 07:34:56;;;;;;;9.75;5.82;;;7.70;60.40;;;;;;5109403;28;20606;-77
2022/03/18 07:37:26;;;;;;;9.30;5.95;;;7.80;60.40;;;;;;5095715;28;20212;-78
2022/03/18 07:39:54;;;;;;;10.63;5.93;;;7.80;60.00;;;;;;5097235;28;20228;-77
2022/03/18 07:42:21;;;;;;;10.57;6.03;;;8.00;59.80;;;;;;5111959;28;20235;-77
2022/03/18 07:44:48;;;;;;;9.23;6.03;;;8.10;58.70;;;;;;5127813;28;20231;-77
2022/03/18 07:47:14;;;;;;;8.32;5.85;;;8.10;58.40;;;;;;5116206;28;20193;-77
2022/03/18 07:49:41;;;;;;;8.77;5.88;;;8.20;59.00;;;;;;5124952;28;20256;-78
2022/03/18 07:52:08;;;;;;;8.38;5.57;;;8.30;58.20;;;;;;5116538;28;20217;-77
2022/03/18 07:54:35;;;;;;;11.00;4.80;;;8.30;58.40;;;;;;5118375;28;20720;-77
2022/03/18 07:57:04;;;;;;;8.13;5.45;;;8.50;58.40;;;;;;5103684;28;20609;-77
2022/03/18 07:59:31;;;;;;;11.52;5.65;;;8.60;57.20;;;;;;5098039;28;20282;-77
2022/03/18 08:01:58;;;;;;;9.43;5.25;;;8.40;59.00;;;;;;5108301;28;20227;-78
2022/03/18 08:04:25;;;;;;;11.00;5.75;;;8.30;58.20;;;;;;5116417;28;20207;-78
2022/03/18 08:06:52;;;;;;;11.95;6.22;;;8.30;58.20;;;;;;5101339;28;20656;-78
2022/03/18 08:09:20;;;;;;;15.68;6.90;;;8.30;58.20;;;;;;5102208;28;20274;-78
2022/03/18 08:11:47;;;;;;;9.02;5.38;;;8.30;58.20;;;;;;5106329;28;20244;-78
2022/03/18 08:14:15;;;;;;;8.88;5.40;;;8.30;58.20;;;;;;5100222;28;20672;-78
2022/03/18 08:16:43;;;;;;;7.80;5.15;;;8.10;58.00;;;;;;5096553;28;20209;-77
2022/03/18 08:19:11;;;;;;;13.23;5.63;;;8.00;58.00;;;;;;5103151;28;20666;-78
2022/03/18 08:21:39;;;;;;;8.60;5.90;;;8.10;58.00;;;;;;5117179;28;20648;-78
2022/03/18 08:24:08;;;;;;;10.90;5.85;;;8.00;57.90;;;;;;5118182;28;20208;-78
2022/03/18 08:26:37;;;;;;;9.02;5.95;;;8.10;58.00;;;;;;5105121;28;20224;-77
2022/03/18 08:29:05;;;;;;;12.15;6.57;;;8.10;58.00;;;;;;5103014;28;20211;-79
2022/03/18 08:31:35;;;;;;;14.95;5.43;;;8.30;58.20;;;;;;5123517;28;20701;-79
2022/03/18 08:34:02;;;;;;;10.55;5.78;;;8.30;58.20;;;;;;5125447;28;20297;-78
2022/03/18 08:36:29;;;;;;;11.48;6.18;;;8.20;58.10;;;;;;5123921;28;20240;-78
2022/03/18 08:38:56;;;;;;;12.07;6.93;;;8.30;58.20;;;;;;5101094;28;20280;-79
2022/03/18 08:41:23;;;;;;;10.93;6.28;;;8.40;58.30;;;;;;5109091;28;20602;-79
2022/03/18 08:43:50;;;;;;;11.88;6.65;;;8.50;56.80;;;;;;5106292;28;20209;-78
2022/03/18 08:46:17;;;;;;;12.45;6.70;;;8.50;57.30;;;;;;5096684;28;20215;-78
2022/03/18 08:48:46;;;;;;;13.00;6.40;;;8.50;56.80;;;;;;5109191;28;20255;-78
2022/03/18 08:51:15;;;;;;;14.75;5.50;;;8.30;58.20;;;;;;5102935;28;20237;-78
2022/03/18 08:53:42;;;;;;;12.80;6.93;;;8.60;57.90;;;;;;5095109;28;20207;-79
2022/03/18 08:56:09;;;;;;;8.50;5.72;;;8.70;57.70;;;;;;5103339;28;20205;-78
2022/03/18 08:58:36;;;;;;;10.27;6.85;;;8.70;57.10;;;;;;5096377;28;20219;-78
2022/03/18 09:01:03;;;;;;;10.20;6.45;;;9.00;56.20;;;;;;5098214;28;20394;-77
2022/03/18 09:03:30;;;;;;;13.07;7.03;;;8.90;56.00;;;;;;5099306;28;20683;-78
2022/03/18 09:05:59;;;;;;;11.25;6.25;;;9.00;56.40;;;;;;5096687;28;20668;-75
2022/03/18 09:08:26;;;;;;;12.15;6.20;;;9.00;55.50;;;;;;5093768;28;20204;-76
2022/03/18 09:10:52;;;;;;;11.55;6.28;;;9.10;55.50;;;;;;5095986;28;20245;-79
2022/03/18 09:13:19;;;;;;;10.77;6.43;;;9.40;54.50;;;;;;5095172;28;20681;-77
2022/03/18 09:15:46;;;;;;;11.50;6.75;;;9.60;54.10;;;;;;5095552;28;20205;-76
2022/03/18 09:18:14;;;;;;;10.85;6.88;;;9.60;53.30;;;;;;5099743;28;20215;-76
2022/03/18 09:20:41;;;;;;;13.73;7.00;;;9.30;54.00;;;;;;5111055;28;20221;-77
2022/03/18 09:23:09;;;;;;;12.88;6.30;;;9.40;54.10;;;;;;5114701;28;20201;-77
2022/03/18 09:25:37;;;;;;;10.82;5.95;;;9.40;54.50;;;;;;5122235;28;20205;-77
2022/03/18 09:28:04;;;;;;;11.18;6.85;;;9.70;53.40;;;;;;5134873;28;20197;-77
2022/03/18 09:30:31;;;;;;;11.10;6.40;;;9.80;53.80;;;;;;5112470;28;20225;-76
2022/03/18 09:32:58;;;;;;;13.48;6.65;;;9.80;53.40;;;;;;5094757;28;20236;-77
2022/03/18 09:35:27;;;;;;;13.90;7.60;;;9.90;52.30;;;;;;5098115;28;20277;-77
2022/03/18 09:37:54;;;;;;;14.27;7.80;;;9.90;52.60;;;;;;5099184;28;20581;-77
2022/03/18 09:40:22;;;;;;;10.57;7.60;;;9.90;53.00;;;;;;5098121;28;20266;-75
2022/03/18 09:42:57;;;;;;;12.73;7.97;;;10.10;51.70;;;;;;5095618;28;20295;-76
2022/03/18 09:45:25;;;;;;;19.15;9.70;;;10.40;50.90;;;;;;5095419;28;20280;-77
2022/03/18 09:47:52;;;;;;;19.38;10.60;;;10.10;51.80;;;;;;5096002;28;20288;-78
2022/03/18 09:50:20;;;;;;;16.33;10.55;;;10.00;51.90;;;;;;5095130;28;20241;-77
2022/03/18 09:52:48;;;;;;;18.20;10.85;;;10.00;52.20;;;;;;5093081;28;20316;-76
2022/03/18 09:55:15;;;;;;;15.07;9.38;;;10.40;51.30;;;;;;5093474;28;20304;-76
2022/03/18 09:57:43;;;;;;;21.13;11.57;;;10.40;51.00;;;;;;5093586;28;20312;-75
2022/03/18 10:00:11;;;;;;;18.17;11.48;;;10.20;50.80;;;;;;5093381;28;20230;-78
2022/03/18 10:02:38;;;;;;;15.80;10.38;;;10.10;51.30;;;;;;5094140;28;20574;-76
2022/03/18 10:05:11;;;;;;;20.35;12.60;;;10.00;51.20;;;;;;5095409;28;20568;-76
2022/03/18 10:07:38;;;;;;;20.40;11.70;;;10.00;50.80;;;;;;5097168;28;20251;-75
2022/03/18 10:10:15;;;;;;;19.42;12.48;;;9.90;52.00;;;;;;5098345;28;20640;-78
2022/03/18 10:12:45;;;;;;;22.75;12.70;;;10.00;51.50;;;;;;5098770;28;20205;-77
2022/03/18 10:15:14;;;;;;;17.48;11.23;;;10.20;50.70;;;;;;5098203;28;20669;-76
2022/03/18 10:17:46;;;;;;;15.88;11.75;;;10.40;49.60;;;;;;5098647;28;20209;-76
2022/03/18 10:20:42;;;;;;;19.45;12.18;;;10.50;49.70;;;;;;5097761;28;20229;-76
2022/03/18 10:23:21;;;;;;;19.17;11.60;;;10.80;49.00;;;;;;5097643;28;20289;-76
2022/03/18 10:25:53;;;;;;;16.58;11.55;;;10.60;49.80;;;;;;5097206;28;20201;-78
2022/03/18 10:28:37;;;;;;;22.30;13.70;;;10.90;49.20;;;;;;5097381;28;20742;-76
2022/03/18 10:31:11;;;;;;;22.92;12.48;;;10.60;48.80;;;;;;5097722;28;20264;-76
2022/03/18 10:39:25;;;;;;;19.05;11.93;;;11.20;47.80;;;;;;5080099;28;20213;-76
2022/03/18 10:41:52;;;;;;;20.42;13.00;;;11.50;47.40;;;;;;5091288;28;20212;-76
2022/03/18 10:44:20;;;;;;;20.60;12.65;;;11.50;46.60;;;;;;5107197;28;20205;-75
2022/03/18 10:46:49;;;;;;;19.90;11.38;;;11.80;46.10;;;;;;5102116;28;20596;-75
2022/03/18 10:49:16;;;;;;;20.38;13.30;;;11.70;46.00;;;;;;5101401;28;20237;-75
2022/03/18 10:51:44;;;;;;;20.13;12.80;;;11.70;46.00;;;;;;5103136;28;20236;-74
2022/03/18 10:54:11;;;;;;;20.48;12.57;;;11.70;46.30;;;;;;5101024;28;20274;-75
2022/03/18 10:56:56;;;;;;;21.40;14.15;;;11.80;45.60;;;;;;5097949;28;20296;-74
2022/03/18 10:59:26;;;;;;;27.25;13.32;;;11.80;45.60;;;;;;5078374;28;20289;-78
2022/03/18 11:01:53;;;;;;;19.65;14.25;;;11.90;44.30;;;;;;5078026;28;20558;-76
2022/03/18 11:04:23;;;;;;;19.30;12.45;;;11.80;45.50;;;;;;5097560;28;20201;-75
2022/03/18 11:12:28;;;;;;;19.70;13.98;;;12.10;44.50;;;;;;5096919;28;20229;-76
2022/03/18 11:14:58;;;;;;;22.23;15.13;;;11.80;45.00;;;;;;5098417;28;20211;-75
2022/03/18 11:17:25;;;;;;;22.17;13.48;;;11.70;45.50;;;;;;5097361;28;20204;-76
2022/03/18 11:19:53;;;;;;;23.63;14.13;;;11.70;45.30;;;;;;5098097;28;20653;-76
2022/03/18 11:22:22;;;;;;;24.30;15.63;;;11.60;45.90;;;;;;5081419;28;20210;-76
2022/03/18 11:24:51;;;;;;;23.33;14.52;;;11.80;45.70;;;;;;5106838;28;20617;-76
2022/03/18 11:27:18;;;;;;;27.63;16.60;;;11.70;45.50;;;;;;5101667;28;20551;-76
2022/03/18 11:29:45;;;;;;;23.40;14.18;;;11.60;45.90;;;;;;5108465;28;20285;-77
2022/03/18 11:32:21;;;;;;;23.63;13.63;;;11.60;45.60;;;;;;5104243;28;20221;-76
2022/03/18 11:34:51;;;;;;;24.80;14.40;;;11.60;45.90;;;;;;5095617;28;20205;-76
2022/03/18 11:37:19;;;;;;;22.30;13.85;;;11.70;45.50;;;;;;5102615;28;20273;-77
2022/03/18 11:39:47;;;;;;;22.60;14.98;;;11.50;45.80;;;;;;5098146;28;20225;-76
2022/03/18 11:42:19;;;;;;;21.67;14.15;;;11.80;45.60;;;;;;5099834;28;20197;-76
2022/03/18 11:44:52;;;;;;;20.30;13.05;;;12.10;45.00;;;;;;5106107;28;20203;-75
2022/03/18 11:47:40;;;;;;;24.55;16.08;;;12.50;43.60;;;;;;5126032;28;20208;-75
2022/03/18 11:50:41;;;;;;;23.63;14.88;;;12.30;43.10;;;;;;5118995;28;20260;-75
2022/03/18 11:53:12;;;;;;;22.55;14.30;;;12.10;43.90;;;;;;5021550;28;20207;-74
2022/03/18 11:55:39;;;;;;;20.27;15.25;;;12.10;43.50;;;;;;5064907;28;20776;-76
2022/03/18 11:58:28;;;;;;;23.88;16.27;;;12.10;43.30;;;;;;5090305;28;20197;-76
2022/03/18 12:00:55;;;;;;;22.42;15.48;;;12.00;43.10;;;;;;5098246;28;20236;-76
2022/03/18 12:03:29;;;;;;;25.33;15.90;;;12.20;42.90;;;;;;5101200;28;20205;-73
2022/03/18 12:05:58;;;;;;;22.17;15.07;;;11.90;43.00;;;;;;5102567;28;20576;-76
2022/03/18 12:09:02;;;;;;;20.00;13.90;;;11.90;43.50;;;;;;5100031;28;20205;-75
2022/03/18 12:11:31;;;;;;;23.02;15.02;;;12.10;42.70;;;;;;5094111;28;20225;-76
2022/03/18 12:13:58;;;;;;;26.90;14.98;;;12.00;42.60;;;;;;5096900;28;20209;-75
2022/03/18 12:16:25;;;;;;;24.77;15.75;;;11.90;43.70;;;;;;5104213;28;20566;-75
2022/03/18 12:18:59;;;;;;;25.20;14.93;;;12.00;43.20;;;;;;5096937;28;20205;-76
2022/03/18 12:21:37;;;;;;;21.75;15.48;;;12.00;42.90;;;;;;5104410;28;20700;-75
2022/03/18 12:24:08;;;;;;;25.83;15.35;;;12.00;43.00;;;;;;5102582;28;20664;-75
2022/03/18 12:26:39;;;;;;;23.23;15.40;;;12.30;42.00;;;;;;5107153;28;20209;-75
2022/03/18 12:29:07;;;;;;;24.85;15.85;;;12.30;41.60;;;;;;5110282;28;20200;-76
2022/03/18 12:31:34;;;;;;;26.70;16.27;;;12.20;41.60;;;;;;5074639;28;20202;-75
2022/03/18 12:34:08;;;;;;;23.58;14.65;;;12.20;42.30;;;;;;5094790;28;20341;-75
2022/03/18 12:36:36;;;;;;;24.08;14.60;;;11.90;42.40;;;;;;5115112;28;20276;-74
2022/03/18 12:39:11;;;;;;;31.63;17.25;;;11.90;42.50;;;;;;5098925;28;20209;-76
2022/03/18 12:41:40;;;;;;;23.83;15.85;;;11.80;41.90;;;;;;5098350;28;20200;-75
2022/03/18 12:44:07;;;;;;;26.42;16.27;;;11.60;41.60;;;;;;5111174;28;20596;-75
2022/03/18 12:46:37;;;;;;;24.63;14.90;;;11.80;42.60;;;;;;5103501;28;20205;-75
2022/03/18 12:49:06;;;;;;;23.33;14.88;;;11.90;42.60;;;;;;5119483;28;20272;-76
2022/03/18 12:51:36;;;;;;;29.95;15.90;;;12.10;41.50;;;;;;5107549;28;20212;-75
2022/03/18 12:54:03;;;;;;;22.27;14.43;;;12.10;42.10;;;;;;5110673;28;20231;-75
2022/03/18 12:56:31;;;;;;;20.60;15.13;;;12.20;41.60;;;;;;5082530;28;20301;-76
2022/03/18 12:58:58;;;;;;;20.75;14.57;;;12.40;41.80;;;;;;5094754;28;20205;-76
2022/03/18 13:01:27;;;;;;;22.23;13.52;;;12.40;41.70;;;;;;5097813;28;20236;-76
2022/03/18 13:03:55;;;;;;;24.58;13.85;;;12.20;41.60;;;;;;5099581;28;20190;-76
2022/03/18 13:06:27;;;;;;;24.23;14.52;;;12.40;41.70;;;;;;5094629;28;20254;-75
2022/03/18 13:09:08;;;;;;;21.85;13.88;;;12.20;41.60;;;;;;5093740;28;20645;-76
2022/03/18 13:11:39;;;;;;;23.40;15.40;;;12.20;41.60;;;;;;5096773;28;20190;-75
2022/03/18 13:14:05;;;;;;;21.95;14.38;;;11.90;41.30;;;;;;5075830;28;20221;-76
2022/03/18 13:16:39;;;;;;;21.38;14.57;;;11.90;42.30;;;;;;5105997;28;20248;-76